Time;durP1;ratioP1;P1;durP2;ratioP2;P2;SDS_P1;SDS_P2;PMS_P1;PMS_P2;Temp;Humidity;BMP_temperature;BMP_pressure;BME280_temperature;BME280_humidity;BME280_pressure;Samples;Min_cycle;Max_cycle;Signal;HPM_P1;HPM_P2
2022/07/21 00:01:50;;;;;;;1.92;1.92;;;21.10;66.20;;;;;;5104113;27;20265;-72
2022/07/21 00:04:16;;;;;;;2.38;2.08;;;21.10;66.10;;;;;;5112275;27;20174;-71
2022/07/21 00:06:43;;;;;;;2.10;2.00;;;21.00;66.00;;;;;;5106016;27;20208;-71
2022/07/21 00:09:10;;;;;;;5.95;1.88;;;21.00;66.20;;;;;;5110127;27;20205;-71
2022/07/21 00:11:37;;;;;;;2.10;2.00;;;21.00;66.30;;;;;;5105437;27;20895;-71
2022/07/21 00:14:03;;;;;;;2.13;2.03;;;21.00;66.70;;;;;;5103258;27;20174;-71
2022/07/21 00:16:29;;;;;;;3.40;1.95;;;21.00;66.90;;;;;;5109807;27;20178;-72
2022/07/21 00:18:54;;;;;;;2.15;2.05;;;21.00;67.60;;;;;;5106306;27;20678;-72
2022/07/21 00:21:20;;;;;;;1.77;1.77;;;20.90;66.80;;;;;;5113043;27;20354;-72
2022/07/21 00:23:46;;;;;;;1.67;1.58;;;20.90;67.00;;;;;;5104660;28;20318;-72
2022/07/21 00:26:11;;;;;;;1.83;1.70;;;20.80;67.50;;;;;;5105365;27;20181;-71
2022/07/21 00:28:37;;;;;;;1.98;1.98;;;20.80;67.00;;;;;;5101641;28;20189;-71
2022/07/21 00:31:03;;;;;;;1.67;1.58;;;20.70;67.10;;;;;;5106619;28;20193;-72
2022/07/21 00:33:28;;;;;;;1.67;1.58;;;20.70;66.80;;;;;;5103753;28;20240;-72
2022/07/21 00:35:54;;;;;;;1.85;1.83;;;20.70;67.30;;;;;;5110107;28;20982;-72
2022/07/21 00:38:20;;;;;;;3.65;1.90;;;20.60;67.20;;;;;;5110150;27;20412;-72
2022/07/21 00:40:46;;;;;;;2.33;2.17;;;20.60;67.70;;;;;;5094930;27;20622;-72
2022/07/21 00:43:11;;;;;;;1.65;1.65;;;20.60;67.70;;;;;;5109222;27;20179;-71
2022/07/21 00:45:37;;;;;;;2.08;1.98;;;20.60;67.70;;;;;;5113051;27;20173;-72
2022/07/21 00:48:03;;;;;;;1.80;1.70;;;20.60;68.10;;;;;;5108463;27;20200;-72
2022/07/21 00:50:31;;;;;;;1.63;1.63;;;20.50;68.00;;;;;;5108501;27;20184;-72
2022/07/21 00:52:57;;;;;;;2.13;1.65;;;20.50;67.60;;;;;;5112969;27;20212;-72
2022/07/21 00:55:24;;;;;;;2.10;1.98;;;20.50;67.40;;;;;;5112082;27;20653;-72
2022/07/21 00:57:51;;;;;;;1.42;1.42;;;20.40;65.80;;;;;;5093273;28;20344;-71
2022/07/21 01:00:23;;;;;;;1.75;1.65;;;20.30;66.70;;;;;;5111636;27;20234;-72
2022/07/21 01:02:49;;;;;;;1.35;1.35;;;20.30;68.20;;;;;;5107500;27;20190;-71
2022/07/21 01:05:15;;;;;;;1.67;1.30;;;20.30;68.60;;;;;;5108684;27;20216;-71
2022/07/21 01:07:45;;;;;;;1.33;1.33;;;20.30;68.20;;;;;;5114199;27;20205;-72
2022/07/21 01:10:13;;;;;;;1.25;1.25;;;20.20;68.00;;;;;;5110444;27;20595;-72
2022/07/21 01:12:39;;;;;;;1.15;1.15;;;20.10;68.10;;;;;;5108030;27;20181;-72
2022/07/21 01:15:07;;;;;;;3.67;1.58;;;20.10;68.40;;;;;;5110718;27;20182;-72
2022/07/21 01:17:33;;;;;;;1.60;1.60;;;20.00;68.70;;;;;;5113657;27;20917;-72
2022/07/21 01:20:05;;;;;;;1.60;1.60;;;19.90;67.80;;;;;;5117421;27;20208;-72
2022/07/21 01:22:36;;;;;;;2.30;1.70;;;19.90;67.10;;;;;;5086453;28;20659;-73
2022/07/21 01:25:02;;;;;;;2.20;1.90;;;19.80;68.30;;;;;;5112687;27;20661;-72
2022/07/21 01:27:28;;;;;;;2.20;1.80;;;19.80;68.40;;;;;;5111299;27;20174;-73
2022/07/21 01:29:55;;;;;;;2.38;2.28;;;19.80;68.90;;;;;;5111787;27;20182;-72
2022/07/21 01:32:22;;;;;;;2.13;2.00;;;19.80;68.40;;;;;;5110960;27;20185;-72
2022/07/21 01:34:48;;;;;;;3.60;1.95;;;19.80;68.80;;;;;;5110928;27;20234;-72
2022/07/21 01:37:14;;;;;;;1.70;1.70;;;19.70;68.90;;;;;;5114580;27;20713;-72
2022/07/21 01:42:24;;;;;;;1.55;1.45;;;19.70;69.30;;;;;;5113901;27;20237;-72
2022/07/21 01:44:50;;;;;;;1.77;1.77;;;19.70;69.70;;;;;;5108749;27;21155;-71
2022/07/21 01:47:17;;;;;;;1.50;1.50;;;19.70;69.40;;;;;;5110132;27;20185;-71
2022/07/21 01:49:43;;;;;;;1.90;1.80;;;19.70;69.70;;;;;;5103068;27;20266;-71
2022/07/21 01:52:09;;;;;;;1.33;1.30;;;19.70;69.20;;;;;;5109561;27;20185;-71
2022/07/21 01:54:35;;;;;;;1.38;1.33;;;19.70;69.50;;;;;;5112501;27;20634;-72
2022/07/21 01:57:01;;;;;;;1.50;1.50;;;19.70;69.60;;;;;;5111018;27;20177;-73
2022/07/21 01:59:27;;;;;;;1.42;1.27;;;19.70;69.50;;;;;;5110985;27;20185;-71
2022/07/21 02:01:52;;;;;;;1.27;1.27;;;19.70;69.90;;;;;;5106148;27;20182;-71
2022/07/21 02:04:18;;;;;;;1.85;1.75;;;19.70;70.00;;;;;;5107983;27;20181;-71
2022/07/21 02:06:44;;;;;;;1.55;1.52;;;19.60;70.30;;;;;;5111198;27;20269;-71
2022/07/21 02:09:10;;;;;;;1.27;1.27;;;19.60;70.20;;;;;;5112957;27;20197;-72
2022/07/21 02:11:36;;;;;;;1.77;1.63;;;19.60;70.70;;;;;;5089816;27;20693;-71
2022/07/21 02:14:02;;;;;;;1.77;1.75;;;19.50;70.30;;;;;;5115433;27;20726;-72
2022/07/21 02:16:28;;;;;;;1.58;1.52;;;19.50;69.80;;;;;;5103454;27;20213;-72
2022/07/21 02:18:54;;;;;;;1.50;1.40;;;19.40;69.90;;;;;;5106441;27;20672;-72
2022/07/21 02:21:20;;;;;;;2.70;1.65;;;19.40;70.20;;;;;;5117580;27;20235;-73
2022/07/21 02:23:46;;;;;;;1.35;1.35;;;19.40;70.70;;;;;;5109504;27;20747;-72
2022/07/21 02:26:11;;;;;;;1.80;1.80;;;19.40;70.40;;;;;;5116396;27;20183;-73
2022/07/21 02:28:38;;;;;;;4.25;1.58;;;19.40;70.30;;;;;;5110766;27;20185;-72
2022/07/21 02:31:04;;;;;;;4.25;1.95;;;19.30;70.80;;;;;;5107000;27;20236;-72
2022/07/21 02:33:29;;;;;;;1.23;1.23;;;19.30;70.20;;;;;;5112116;27;20200;-72
2022/07/21 02:35:55;;;;;;;1.50;1.40;;;19.30;70.30;;;;;;5089056;28;20268;-74
2022/07/21 02:38:21;;;;;;;1.60;1.50;;;19.30;70.20;;;;;;5109111;27;20189;-72
2022/07/21 02:40:46;;;;;;;1.52;1.52;;;19.20;70.40;;;;;;5090825;27;20216;-73
2022/07/21 02:43:12;;;;;;;1.42;1.42;;;19.20;70.50;;;;;;5105181;27;20177;-73
2022/07/21 02:45:39;;;;;;;1.60;1.50;;;19.20;70.60;;;;;;5109978;27;20206;-74
2022/07/21 02:48:07;;;;;;;1.92;1.92;;;19.20;70.60;;;;;;5086784;27;20177;-73
2022/07/21 02:50:35;;;;;;;2.10;1.90;;;19.20;70.30;;;;;;5114592;27;20841;-73
2022/07/21 02:53:08;;;;;;;1.90;1.77;;;19.20;70.60;;;;;;5102394;27;20177;-73
2022/07/21 02:55:34;;;;;;;1.88;1.63;;;19.20;70.40;;;;;;5106037;27;20185;-72
2022/07/21 02:58:14;;;;;;;1.73;1.70;;;19.10;70.80;;;;;;5106609;27;20284;-73
2022/07/21 03:00:43;;;;;;;1.50;1.50;;;19.10;70.80;;;;;;5087647;27;20210;-73
2022/07/21 03:03:09;;;;;;;1.50;1.50;;;19.10;71.00;;;;;;5112034;27;20203;-73
2022/07/21 03:05:36;;;;;;;1.65;1.65;;;19.10;71.50;;;;;;5100963;27;20862;-73
2022/07/21 03:08:03;;;;;;;1.77;1.60;;;19.10;71.70;;;;;;5091134;28;20217;-73
2022/07/21 03:10:28;;;;;;;1.38;1.38;;;19.10;71.90;;;;;;5114549;27;20188;-73
2022/07/21 03:12:54;;;;;;;3.42;1.90;;;19.10;72.50;;;;;;5106776;27;20173;-73
2022/07/21 03:15:20;;;;;;;1.77;1.67;;;19.10;72.20;;;;;;5108315;27;20641;-73
2022/07/21 03:17:46;;;;;;;1.40;1.40;;;19.00;71.50;;;;;;5091737;27;20180;-73
2022/07/21 03:20:12;;;;;;;1.90;1.80;;;19.00;71.90;;;;;;5113181;27;20678;-71
2022/07/21 03:22:38;;;;;;;1.42;1.33;;;19.00;71.70;;;;;;5103875;27;20196;-72
2022/07/21 03:25:05;;;;;;;1.52;1.52;;;19.00;72.10;;;;;;5089147;27;20292;-72
2022/07/21 03:27:35;;;;;;;1.40;1.40;;;18.90;72.10;;;;;;5107667;27;20186;-73
2022/07/21 03:30:06;;;;;;;1.60;1.60;;;18.90;72.10;;;;;;5095516;27;20191;-72
2022/07/21 03:32:31;;;;;;;2.33;1.70;;;18.90;72.50;;;;;;5104950;27;20190;-73
2022/07/21 03:34:57;;;;;;;1.83;1.58;;;18.80;72.60;;;;;;5102950;27;20203;-73
2022/07/21 03:37:23;;;;;;;1.58;1.58;;;18.80;72.30;;;;;;5105623;27;20178;-74
2022/07/21 03:39:48;;;;;;;3.17;1.58;;;18.80;72.30;;;;;;5111058;27;20292;-73
2022/07/21 03:42:14;;;;;;;1.58;1.58;;;18.80;72.10;;;;;;5113325;27;20589;-73
2022/07/21 03:44:40;;;;;;;1.60;1.50;;;18.70;71.70;;;;;;5114872;27;20281;-74
2022/07/21 03:47:05;;;;;;;1.58;1.48;;;18.70;71.40;;;;;;5108734;27;20186;-74
2022/07/21 03:49:31;;;;;;;1.50;1.50;;;18.60;71.10;;;;;;5110331;27;20192;-74
2022/07/21 03:51:57;;;;;;;1.70;1.60;;;18.60;72.30;;;;;;5114174;27;21130;-73
2022/07/21 03:54:22;;;;;;;1.70;1.60;;;18.60;71.90;;;;;;5114127;27;20260;-74
2022/07/21 03:56:49;;;;;;;1.67;1.67;;;18.60;71.90;;;;;;5112815;27;20266;-72
2022/07/21 03:59:15;;;;;;;1.85;1.75;;;18.60;72.10;;;;;;5108529;27;20181;-73
2022/07/21 04:01:41;;;;;;;2.40;1.77;;;18.60;72.10;;;;;;5112128;27;20223;-72
2022/07/21 04:04:06;;;;;;;1.42;1.42;;;18.70;72.10;;;;;;5112226;27;20748;-73
2022/07/21 04:06:32;;;;;;;1.40;1.40;;;18.70;72.10;;;;;;5109955;27;20181;-73
2022/07/21 04:08:58;;;;;;;2.15;2.05;;;18.70;72.60;;;;;;5108765;27;20878;-73
2022/07/21 04:11:23;;;;;;;1.55;1.52;;;18.80;72.50;;;;;;5109538;27;20432;-73
2022/07/21 04:13:49;;;;;;;1.55;1.55;;;18.80;72.60;;;;;;5117972;27;20176;-73
2022/07/21 04:16:15;;;;;;;1.50;1.40;;;18.80;72.10;;;;;;5112029;27;20185;-73
2022/07/21 04:18:41;;;;;;;1.10;1.10;;;18.80;72.10;;;;;;5111687;27;20639;-73
2022/07/21 04:21:06;;;;;;;1.67;1.67;;;18.80;72.20;;;;;;5112459;27;20224;-73
2022/07/21 04:23:32;;;;;;;1.42;1.42;;;18.90;71.90;;;;;;5115384;27;20177;-73
2022/07/21 04:25:58;;;;;;;1.40;1.40;;;18.90;72.20;;;;;;5100352;28;20177;-73
2022/07/21 04:28:24;;;;;;;1.65;1.65;;;19.00;71.90;;;;;;5111257;28;20231;-73
2022/07/21 04:30:49;;;;;;;1.88;1.77;;;19.00;72.20;;;;;;5115206;28;20257;-72
2022/07/21 04:33:15;;;;;;;1.80;1.70;;;19.00;72.10;;;;;;5112526;28;20690;-74
2022/07/21 04:35:41;;;;;;;1.58;1.55;;;19.00;72.00;;;;;;5107853;28;20252;-75
2022/07/21 04:38:09;;;;;;;2.00;1.85;;;19.10;71.90;;;;;;5115474;28;20192;-75
2022/07/21 04:40:36;;;;;;;1.67;1.67;;;19.10;71.70;;;;;;5111141;28;20720;-76
2022/07/21 04:43:02;;;;;;;1.30;1.30;;;19.10;71.90;;;;;;5106351;28;21032;-76
2022/07/21 04:45:28;;;;;;;2.15;2.00;;;19.20;71.80;;;;;;5106782;28;20173;-76
2022/07/21 04:47:55;;;;;;;2.03;1.95;;;19.20;71.90;;;;;;5111566;28;20184;-76
2022/07/21 04:50:25;;;;;;;2.05;1.95;;;19.20;72.40;;;;;;5100991;28;20338;-76
2022/07/21 04:52:51;;;;;;;3.10;1.85;;;19.30;72.20;;;;;;5107109;28;20186;-76
2022/07/21 04:55:19;;;;;;;1.23;1.23;;;19.30;72.00;;;;;;5107879;28;20185;-79
2022/07/21 04:57:46;;;;;;;1.50;1.50;;;19.30;72.60;;;;;;5106784;28;20185;-79
2022/07/21 05:00:18;;;;;;;1.40;1.40;;;19.40;71.70;;;;;;5102222;28;20253;-79
2022/07/21 05:02:45;;;;;;;1.40;1.40;;;19.40;71.60;;;;;;5108807;28;20185;-79
2022/07/21 05:05:11;;;;;;;1.70;1.60;;;19.40;72.00;;;;;;5109964;28;20220;-78
2022/07/21 05:07:37;;;;;;;2.20;2.10;;;19.50;71.80;;;;;;5102270;28;20193;-78
2022/07/21 05:10:07;;;;;;;2.85;2.15;;;19.40;72.50;;;;;;5084549;28;20584;-78
2022/07/21 05:12:33;;;;;;;1.80;1.80;;;19.50;71.50;;;;;;5106487;28;20304;-78
2022/07/21 05:14:59;;;;;;;1.60;1.60;;;19.50;71.80;;;;;;5097001;28;20206;-78
2022/07/21 05:17:25;;;;;;;1.75;1.75;;;19.60;71.40;;;;;;5091785;28;20238;-78
2022/07/21 05:19:50;;;;;;;5.07;2.38;;;19.60;71.60;;;;;;5110096;28;20212;-78
2022/07/21 05:22:19;;;;;;;2.08;1.98;;;19.70;71.50;;;;;;5107424;28;20651;-78
2022/07/21 05:24:45;;;;;;;3.42;2.25;;;19.70;70.70;;;;;;5109808;27;20185;-79
2022/07/21 05:27:11;;;;;;;1.88;1.77;;;19.80;71.80;;;;;;5108076;27;20835;-78
2022/07/21 05:29:37;;;;;;;2.30;1.85;;;19.80;70.90;;;;;;5113627;27;20182;-77
2022/07/21 05:32:03;;;;;;;1.83;1.60;;;19.90;70.70;;;;;;5104183;27;20182;-76
2022/07/21 05:34:29;;;;;;;1.90;1.83;;;19.90;70.70;;;;;;5107086;27;20220;-77
2022/07/21 05:36:54;;;;;;;2.30;2.10;;;20.00;70.70;;;;;;5108176;27;20205;-75
2022/07/21 05:39:20;;;;;;;1.88;1.77;;;20.00;71.20;;;;;;5107875;27;20183;-79
2022/07/21 05:41:46;;;;;;;1.77;1.67;;;20.10;71.00;;;;;;5115238;27;20201;-80
2022/07/21 05:44:12;;;;;;;2.00;1.90;;;20.10;71.20;;;;;;5103932;27;20185;-77
2022/07/21 05:46:38;;;;;;;2.08;1.90;;;20.20;70.90;;;;;;5095121;27;20181;-75
2022/07/21 05:49:04;;;;;;;2.50;2.30;;;20.30;70.70;;;;;;5107080;27;20181;-75
2022/07/21 05:51:30;;;;;;;1.95;1.92;;;20.30;70.80;;;;;;5110365;27;20244;-80
2022/07/21 05:53:56;;;;;;;2.00;2.00;;;20.40;70.90;;;;;;5108528;27;20887;-78
2022/07/21 05:56:22;;;;;;;2.10;2.10;;;20.50;71.00;;;;;;5101023;27;20630;-78
2022/07/21 05:58:47;;;;;;;2.65;2.03;;;20.50;70.80;;;;;;5109150;27;20189;-78
2022/07/21 06:01:13;;;;;;;2.08;1.98;;;20.60;70.80;;;;;;5110503;27;20214;-79
2022/07/21 06:03:48;;;;;;;3.05;2.50;;;20.60;71.10;;;;;;5111568;27;20275;-79
2022/07/21 06:06:16;;;;;;;3.13;2.17;;;20.70;70.20;;;;;;5112507;27;20197;-80
2022/07/21 06:08:43;;;;;;;2.17;2.08;;;20.80;70.40;;;;;;5094823;27;20216;-80
2022/07/21 06:11:11;;;;;;;1.95;1.95;;;20.90;70.40;;;;;;5114566;27;20173;-79
2022/07/21 06:13:37;;;;;;;2.55;2.33;;;20.90;70.30;;;;;;5076105;27;20675;-79
2022/07/21 06:16:03;;;;;;;2.47;2.25;;;21.00;70.30;;;;;;5114325;27;20185;-79
2022/07/21 06:18:29;;;;;;;2.60;2.17;;;21.10;70.30;;;;;;5093352;27;20450;-80
2022/07/21 06:20:55;;;;;;;2.88;2.55;;;21.10;70.20;;;;;;5114229;27;20213;-77
2022/07/21 06:23:21;;;;;;;2.58;2.47;;;21.20;70.10;;;;;;5116275;27;20188;-80
2022/07/21 06:25:47;;;;;;;2.75;2.65;;;21.20;70.00;;;;;;5107323;27;20073;-80
2022/07/21 06:28:13;;;;;;;2.47;2.38;;;21.30;69.90;;;;;;5104255;27;20179;-77
2022/07/21 06:30:39;;;;;;;6.35;3.22;;;21.40;69.80;;;;;;5091473;27;20588;-77
2022/07/21 06:33:05;;;;;;;2.80;2.70;;;21.50;69.10;;;;;;5113157;27;20368;-77
2022/07/21 06:35:31;;;;;;;4.07;2.80;;;21.60;68.80;;;;;;5111775;27;20182;-77
2022/07/21 06:37:56;;;;;;;3.15;2.95;;;21.60;68.80;;;;;;5115895;27;20225;-77
2022/07/21 06:40:22;;;;;;;2.88;2.63;;;21.70;68.70;;;;;;5107992;27;20587;-76
2022/07/21 06:42:48;;;;;;;2.70;2.60;;;21.80;68.80;;;;;;5097024;27;20216;-76
2022/07/21 06:45:13;;;;;;;2.55;2.35;;;21.80;68.70;;;;;;5109768;27;20246;-77
2022/07/21 06:47:40;;;;;;;2.42;2.33;;;21.90;68.80;;;;;;5113034;27;20241;-77
2022/07/21 06:50:07;;;;;;;2.70;2.50;;;22.00;68.50;;;;;;5095798;27;20199;-77
2022/07/21 06:52:34;;;;;;;3.25;3.03;;;22.10;68.40;;;;;;5111560;27;20177;-77
2022/07/21 06:55:00;;;;;;;3.13;2.95;;;22.20;68.50;;;;;;5115199;27;20232;-77
2022/07/21 06:57:25;;;;;;;2.80;2.70;;;22.20;68.40;;;;;;5112892;27;20177;-77
2022/07/21 06:59:51;;;;;;;3.20;3.10;;;22.30;68.50;;;;;;5113152;27;20209;-77
2022/07/21 07:02:17;;;;;;;2.67;2.47;;;22.40;68.40;;;;;;5114388;27;20192;-78
2022/07/21 07:04:45;;;;;;;4.97;2.90;;;22.50;68.40;;;;;;5116043;27;20614;-78
2022/07/21 07:07:11;;;;;;;3.20;3.05;;;22.60;68.40;;;;;;5110553;27;20188;-78
2022/07/21 07:09:37;;;;;;;2.63;2.53;;;22.70;68.40;;;;;;5113610;27;20623;-78
2022/07/21 07:12:03;;;;;;;3.03;2.75;;;22.80;68.30;;;;;;5113224;27;20359;-78
2022/07/21 07:14:30;;;;;;;2.40;2.20;;;22.90;68.20;;;;;;5111241;27;20183;-78
2022/07/21 07:16:56;;;;;;;3.05;2.42;;;23.00;68.20;;;;;;5113950;27;20181;-78
2022/07/21 07:19:22;;;;;;;3.53;2.33;;;23.10;67.10;;;;;;5096041;27;20238;-78
2022/07/21 07:21:48;;;;;;;2.33;2.13;;;23.20;67.30;;;;;;5112455;27;20639;-78
2022/07/21 07:24:13;;;;;;;3.35;2.05;;;23.30;68.10;;;;;;5115532;27;20584;-78
2022/07/21 07:26:40;;;;;;;2.47;2.40;;;23.40;67.50;;;;;;5102486;27;20533;-77
2022/07/21 07:29:06;;;;;;;3.10;2.22;;;23.60;66.90;;;;;;5108599;27;20760;-77
2022/07/21 07:31:33;;;;;;;1.90;1.80;;;23.70;66.60;;;;;;5115182;27;20177;-77
2022/07/21 07:33:59;;;;;;;1.80;1.67;;;23.80;66.50;;;;;;5104226;27;20646;-76
2022/07/21 07:36:26;;;;;;;2.25;2.25;;;23.90;65.70;;;;;;5111649;27;20186;-77
2022/07/21 07:38:52;;;;;;;2.30;2.08;;;24.10;65.60;;;;;;5109266;27;20669;-76
2022/07/21 07:41:20;;;;;;;2.47;2.20;;;24.20;65.60;;;;;;5114714;27;20248;-77
2022/07/21 07:43:46;;;;;;;2.50;2.30;;;24.40;65.30;;;;;;5091072;28;20689;-76
2022/07/21 07:46:12;;;;;;;1.80;1.80;;;24.50;65.30;;;;;;5115638;27;20181;-78
2022/07/21 07:48:41;;;;;;;2.20;2.00;;;24.60;64.70;;;;;;5114387;27;20191;-77
2022/07/21 07:51:08;;;;;;;3.70;2.28;;;24.80;65.10;;;;;;5093605;27;20181;-77
2022/07/21 07:53:34;;;;;;;3.55;1.98;;;24.90;64.70;;;;;;5111473;27;20223;-77
2022/07/21 07:55:59;;;;;;;1.85;1.75;;;25.00;64.60;;;;;;5111112;27;20182;-77
2022/07/21 07:58:25;;;;;;;1.65;1.65;;;25.10;64.40;;;;;;5112692;27;20192;-77
2022/07/21 08:00:51;;;;;;;1.52;1.52;;;25.20;64.00;;;;;;5111866;27;20609;-77
2022/07/21 08:03:17;;;;;;;1.67;1.67;;;25.30;64.20;;;;;;5108678;27;20246;-78
2022/07/21 08:05:43;;;;;;;2.25;1.38;;;25.40;63.80;;;;;;5115223;27;20625;-77
2022/07/21 08:08:09;;;;;;;1.50;1.40;;;25.50;63.30;;;;;;5119078;27;20193;-76
2022/07/21 08:10:35;;;;;;;1.45;1.40;;;25.60;63.20;;;;;;5118950;27;20241;-77
2022/07/21 08:13:01;;;;;;;1.50;1.50;;;25.70;63.00;;;;;;5112231;27;20731;-77
2022/07/21 08:15:27;;;;;;;2.00;1.90;;;25.70;62.60;;;;;;5112108;27;20674;-77
2022/07/21 08:17:53;;;;;;;2.10;2.10;;;25.90;62.50;;;;;;5094556;28;20265;-77
2022/07/21 08:20:18;;;;;;;2.15;1.52;;;26.00;62.70;;;;;;5111862;27;20283;-78
2022/07/21 08:22:44;;;;;;;1.73;1.73;;;26.00;62.50;;;;;;5112240;27;20177;-77
2022/07/21 08:25:10;;;;;;;1.65;1.65;;;26.10;62.70;;;;;;5107382;27;20260;-77
2022/07/21 08:27:35;;;;;;;4.18;1.23;;;26.20;62.90;;;;;;5109802;27;20181;-78
2022/07/21 08:30:01;;;;;;;1.10;1.10;;;26.30;60.60;;;;;;5108103;27;20756;-78
2022/07/21 08:32:27;;;;;;;1.15;1.15;;;26.40;60.50;;;;;;5110659;28;20185;-78
2022/07/21 08:34:53;;;;;;;2.38;1.40;;;26.50;61.30;;;;;;5110518;28;20216;-77
2022/07/21 08:37:22;;;;;;;1.33;1.33;;;26.60;60.40;;;;;;5097077;28;20184;-77
2022/07/21 08:39:48;;;;;;;2.03;1.48;;;26.60;60.30;;;;;;5113059;28;20201;-78
2022/07/21 08:42:14;;;;;;;2.53;1.70;;;26.80;60.80;;;;;;5088291;28;20205;-78
2022/07/21 08:44:40;;;;;;;1.25;1.25;;;26.90;60.20;;;;;;5111006;28;20191;-78
2022/07/21 08:47:06;;;;;;;1.63;1.63;;;27.00;60.70;;;;;;5110770;28;20177;-76
2022/07/21 08:49:37;;;;;;;3.63;1.20;;;27.10;60.60;;;;;;5112458;28;20265;-77
2022/07/21 08:52:05;;;;;;;1.23;1.23;;;27.20;60.50;;;;;;5108373;28;20252;-78
2022/07/21 08:54:32;;;;;;;5.18;1.70;;;27.30;60.50;;;;;;5105132;28;20192;-79
2022/07/21 08:56:58;;;;;;;1.50;1.45;;;27.40;60.20;;;;;;5087545;28;20656;-78
2022/07/21 08:59:24;;;;;;;1.45;1.45;;;27.50;60.30;;;;;;5114212;27;20200;-77
2022/07/21 09:01:49;;;;;;;1.15;1.15;;;27.60;60.20;;;;;;5094548;27;20217;-78
2022/07/21 09:04:30;;;;;;;1.20;1.20;;;27.80;60.00;;;;;;5114544;27;20188;-78
2022/07/21 09:06:59;;;;;;;2.88;1.33;;;27.80;59.90;;;;;;5109252;27;20185;-78
2022/07/21 09:09:27;;;;;;;1.45;1.45;;;27.90;59.50;;;;;;5109775;27;20185;-78
2022/07/21 09:11:53;;;;;;;1.42;1.33;;;28.00;58.60;;;;;;5110114;27;20182;-78
2022/07/21 09:14:22;;;;;;;1.40;1.40;;;28.00;57.90;;;;;;5115916;27;20662;-77
2022/07/21 09:16:54;;;;;;;1.83;1.80;;;28.10;57.80;;;;;;5117675;27;20560;-78
2022/07/21 09:19:28;;;;;;;1.15;1.15;;;28.20;58.70;;;;;;5111801;27;21043;-78
2022/07/21 09:22:00;;;;;;;1.42;1.42;;;28.30;57.30;;;;;;5117306;27;20676;-78
2022/07/21 09:24:39;;;;;;;1.85;1.75;;;28.50;58.20;;;;;;5115907;27;20238;-77
2022/07/21 09:27:05;;;;;;;1.33;1.30;;;28.50;57.40;;;;;;5116847;27;20184;-78
2022/07/21 09:29:49;;;;;;;1.60;1.60;;;28.60;57.30;;;;;;5116455;27;20177;-78
2022/07/21 09:32:22;;;;;;;2.00;2.00;;;28.70;56.90;;;;;;5091020;27;20185;-78
2022/07/21 09:34:51;;;;;;;2.20;2.10;;;28.80;57.70;;;;;;5110851;27;20187;-78
2022/07/21 09:37:17;;;;;;;1.65;1.45;;;29.00;57.60;;;;;;5108913;27;20281;-78
2022/07/21 09:39:51;;;;;;;1.88;1.65;;;29.10;57.50;;;;;;5096650;27;20578;-78
2022/07/21 09:42:27;;;;;;;1.27;1.27;;;29.20;57.40;;;;;;5112473;27;20181;-79
2022/07/21 09:44:58;;;;;;;1.85;1.85;;;29.40;57.50;;;;;;5114692;27;20188;-78
2022/07/21 09:47:27;;;;;;;1.50;1.50;;;29.50;56.80;;;;;;5112928;27;20217;-77
2022/07/21 09:49:54;;;;;;;5.00;1.83;;;29.60;56.60;;;;;;5106737;27;20185;-77
2022/07/21 09:52:21;;;;;;;1.65;1.55;;;29.80;56.10;;;;;;5084425;27;20594;-79
2022/07/21 09:54:47;;;;;;;2.03;1.92;;;29.80;53.90;;;;;;5108611;27;20707;-78
2022/07/21 09:57:16;;;;;;;1.73;1.73;;;29.90;54.20;;;;;;5104840;27;20249;-78
2022/07/21 09:59:44;;;;;;;1.40;1.40;;;30.00;53.90;;;;;;5104438;27;20175;-80
2022/07/21 10:02:20;;;;;;;1.73;1.70;;;30.10;54.80;;;;;;5110250;27;20659;-78
2022/07/21 10:04:51;;;;;;;1.85;1.83;;;30.20;54.40;;;;;;5081975;27;20261;-78
2022/07/21 10:07:18;;;;;;;1.52;1.52;;;30.40;54.10;;;;;;5109996;27;20294;-77
2022/07/21 10:09:44;;;;;;;1.55;1.55;;;30.40;52.60;;;;;;5108718;27;20186;-75
2022/07/21 10:12:11;;;;;;;1.70;1.63;;;30.50;53.40;;;;;;5109535;27;20671;-76
2022/07/21 10:14:36;;;;;;;1.42;1.42;;;30.70;53.70;;;;;;5109409;27;20707;-75
2022/07/21 10:17:02;;;;;;;2.53;1.92;;;31.00;52.10;;;;;;5108361;27;20238;-76
2022/07/21 10:19:34;;;;;;;2.10;1.40;;;31.20;52.30;;;;;;5114605;27;20576;-75
2022/07/21 10:22:23;;;;;;;1.85;1.75;;;31.50;51.20;;;;;;5112537;27;20334;-75
2022/07/21 10:24:49;;;;;;;1.83;1.73;;;31.90;50.30;;;;;;5114402;27;20666;-75
2022/07/21 10:27:15;;;;;;;1.63;1.40;;;32.10;50.10;;;;;;5106067;27;20763;-75
2022/07/21 10:29:47;;;;;;;1.60;1.60;;;32.30;50.70;;;;;;5110560;27;20249;-75
2022/07/21 10:32:15;;;;;;;4.28;1.42;;;32.40;49.40;;;;;;5107545;27;20173;-76
2022/07/21 10:34:42;;;;;;;1.65;1.55;;;32.80;49.30;;;;;;5104723;27;20172;-76
2022/07/21 10:37:09;;;;;;;1.02;1.02;;;33.20;48.80;;;;;;5084438;27;20227;-74
2022/07/21 10:39:35;;;;;;;1.10;1.10;;;33.50;48.60;;;;;;5109741;27;20169;-75
2022/07/21 10:42:14;;;;;;;1.30;1.30;;;33.90;48.40;;;;;;5103856;27;20684;-75
2022/07/21 10:44:42;;;;;;;2.13;1.58;;;34.60;47.90;;;;;;5114803;27;20180;-77
2022/07/21 10:47:20;;;;;;;1.50;1.50;;;35.20;48.00;;;;;;5107187;27;20181;-75
2022/07/21 10:50:00;;;;;;;1.27;1.23;;;36.10;45.20;;;;;;5105993;27;20256;-76
2022/07/21 10:52:35;;;;;;;2.13;2.03;;;36.60;44.60;;;;;;5105143;27;20184;-75
2022/07/21 10:55:12;;;;;;;1.65;1.58;;;36.60;44.40;;;;;;5092138;27;20692;-74
2022/07/21 10:57:41;;;;;;;1.30;1.30;;;36.90;45.20;;;;;;5107990;27;20452;-73
2022/07/21 11:00:28;;;;;;;1.92;1.40;;;36.90;44.40;;;;;;5106993;27;20204;-72
2022/07/21 11:02:57;;;;;;;1.95;1.52;;;37.10;44.80;;;;;;5102188;27;20185;-73
2022/07/21 11:05:26;;;;;;;1.50;1.40;;;37.30;44.10;;;;;;5106272;27;20176;-74
2022/07/21 11:08:15;;;;;;;1.38;1.27;;;37.50;44.60;;;;;;5101498;27;20197;-74
2022/07/21 11:10:50;;;;;;;1.50;1.40;;;37.70;43.50;;;;;;5105376;27;20200;-73
2022/07/21 11:13:19;;;;;;;1.58;1.58;;;38.20;44.80;;;;;;5106505;27;20201;-73
2022/07/21 11:15:55;;;;;;;1.50;1.50;;;38.70;43.20;;;;;;5105057;27;20193;-73
2022/07/21 11:18:30;;;;;;;1.63;1.50;;;38.90;44.50;;;;;;5107967;27;20183;-73
2022/07/21 11:21:09;;;;;;;1.40;1.40;;;39.40;44.00;;;;;;5105897;27;20208;-72
2022/07/21 11:23:44;;;;;;;1.42;1.42;;;39.90;43.30;;;;;;5108324;27;20488;-74
2022/07/21 11:26:12;;;;;;;1.50;1.50;;;40.50;42.10;;;;;;5110184;27;20740;-74
2022/07/21 11:28:38;;;;;;;1.63;1.63;;;41.10;43.70;;;;;;5099331;27;20617;-71
2022/07/21 11:31:11;;;;;;;1.35;1.35;;;41.50;44.00;;;;;;5100953;27;20198;-72
2022/07/21 11:33:43;;;;;;;1.88;1.77;;;41.40;42.10;;;;;;5110092;27;20248;-73
2022/07/21 11:36:09;;;;;;;1.60;1.60;;;41.60;42.20;;;;;;5101824;27;20311;-72
2022/07/21 11:38:34;;;;;;;1.60;1.60;;;41.80;42.50;;;;;;5101842;27;20207;-71
2022/07/21 11:41:19;;;;;;;1.70;1.63;;;42.20;41.40;;;;;;5099596;27;20210;-73
2022/07/21 11:43:46;;;;;;;1.70;1.60;;;42.50;39.70;;;;;;5111548;27;20192;-75
2022/07/21 11:46:13;;;;;;;3.80;1.50;;;42.50;41.20;;;;;;5086002;27;20254;-76
2022/07/21 11:48:39;;;;;;;1.98;1.42;;;42.40;42.00;;;;;;5085322;27;20710;-76
2022/07/21 11:51:06;;;;;;;1.55;1.55;;;42.70;41.30;;;;;;5104268;27;20499;-75
2022/07/21 11:53:32;;;;;;;1.52;1.52;;;42.90;40.30;;;;;;5101559;27;20181;-76
2022/07/21 11:55:58;;;;;;;1.45;1.45;;;43.20;38.70;;;;;;5106390;27;20177;-75
2022/07/21 11:58:24;;;;;;;1.40;1.40;;;43.10;40.50;;;;;;5104308;27;20633;-75
2022/07/21 12:01:05;;;;;;;1.60;1.60;;;43.10;42.20;;;;;;5108888;27;20216;-76
2022/07/21 12:03:31;;;;;;;1.60;1.60;;;43.40;39.10;;;;;;5110776;27;20283;-76
2022/07/21 12:05:57;;;;;;;1.75;1.48;;;43.70;38.90;;;;;;5105603;27;20280;-75
2022/07/21 12:08:23;;;;;;;1.58;1.40;;;43.50;40.20;;;;;;5108313;27;20188;-75
2022/07/21 12:10:49;;;;;;;1.50;1.50;;;43.50;40.10;;;;;;5111946;27;20240;-76
2022/07/21 12:13:16;;;;;;;1.80;1.70;;;43.70;39.40;;;;;;5108444;27;20181;-75
2022/07/21 12:15:42;;;;;;;1.50;1.50;;;44.00;41.40;;;;;;5077385;28;20691;-76
2022/07/21 12:18:18;;;;;;;1.70;1.70;;;44.60;37.90;;;;;;5103709;27;20262;-75
2022/07/21 12:20:44;;;;;;;1.60;1.60;;;45.00;39.10;;;;;;5100681;27;20208;-76
2022/07/21 12:23:30;;;;;;;2.08;1.98;;;44.80;38.10;;;;;;5106292;27;20619;-77
2022/07/21 12:26:01;;;;;;;1.98;1.83;;;44.60;38.60;;;;;;5113420;27;20251;-75
2022/07/21 12:28:47;;;;;;;1.67;1.58;;;44.40;38.30;;;;;;5099038;27;20206;-77
2022/07/21 12:31:21;;;;;;;1.60;1.50;;;44.20;38.80;;;;;;5107124;28;20257;-76
2022/07/21 12:33:51;;;;;;;1.75;1.75;;;44.20;40.00;;;;;;5110587;28;20240;-75
2022/07/21 12:36:20;;;;;;;1.88;1.88;;;44.30;40.00;;;;;;5112761;28;20240;-78
2022/07/21 12:38:47;;;;;;;1.80;1.80;;;44.10;39.70;;;;;;5105684;28;20198;-75
2022/07/21 12:41:16;;;;;;;1.42;1.42;;;43.70;40.30;;;;;;5106523;28;20403;-76
2022/07/21 12:43:42;;;;;;;1.52;1.52;;;43.70;38.50;;;;;;5110848;28;20177;-76
2022/07/21 12:46:19;;;;;;;1.60;1.60;;;43.70;40.10;;;;;;5115073;28;20180;-75
2022/07/21 12:48:45;;;;;;;1.83;1.73;;;43.80;41.50;;;;;;5087664;28;20172;-76
2022/07/21 12:51:11;;;;;;;1.35;1.35;;;44.10;39.30;;;;;;5112406;28;20183;-74
2022/07/21 12:53:44;;;;;;;1.70;1.65;;;44.30;38.20;;;;;;5113110;28;20176;-74